createdAt,value
2022-10-04T00:01:51.592Z,6.00
2022-10-04T00:04:24.664Z,6.10
2022-10-04T00:09:25.823Z,7.40
2022-10-04T00:11:57.210Z,6.20
2022-10-04T00:14:30.871Z,6.60
2022-10-04T00:17:01.736Z,8.90
2022-10-04T00:19:47.365Z,5.80
2022-10-04T00:22:18.883Z,6.00
2022-10-04T00:25:18.697Z,6.30
2022-10-04T00:28:21.403Z,6.20
2022-10-04T00:31:05.661Z,7.00
2022-10-04T00:33:37.627Z,6.60
2022-10-04T00:36:33.675Z,6.30
2022-10-04T00:39:20.223Z,7.40
2022-10-04T00:41:57.225Z,6.20
2022-10-04T00:44:30.261Z,6.90
2022-10-04T00:49:31.127Z,6.70
2022-10-04T00:52:04.246Z,6.00
2022-10-04T00:54:36.580Z,7.30
2022-10-04T00:57:09.033Z,6.20
2022-10-04T00:59:40.496Z,7.40
2022-10-04T01:02:16.776Z,7.00
2022-10-04T01:04:49.530Z,6.70
2022-10-04T01:07:24.008Z,7.60
2022-10-04T01:09:56.118Z,6.70
2022-10-04T01:12:40.849Z,8.10
2022-10-04T01:15:14.987Z,6.80
2022-10-04T01:18:09.315Z,6.40
2022-10-04T01:20:41.134Z,6.70
2022-10-04T01:23:12.174Z,6.30
2022-10-04T01:25:46.694Z,7.10
2022-10-04T01:28:17.808Z,5.90
2022-10-04T01:30:48.676Z,6.40
2022-10-04T01:33:19.361Z,6.40
2022-10-04T01:35:49.588Z,5.60
2022-10-04T01:38:20.164Z,5.90
2022-10-04T01:40:52.746Z,6.80
2022-10-04T01:43:25.150Z,5.60
2022-10-04T01:45:58.475Z,5.50
2022-10-04T01:48:32.515Z,6.90
2022-10-04T01:51:05.519Z,6.50
2022-10-04T01:53:38.894Z,6.00
2022-10-04T01:56:12.239Z,6.20
2022-10-04T01:58:43.973Z,9.50
2022-10-04T02:01:16.250Z,7.10
2022-10-04T02:03:52.592Z,7.10
2022-10-04T02:06:24.418Z,5.90
2022-10-04T02:08:57.789Z,7.50
2022-10-04T02:11:30.525Z,7.40
2022-10-04T02:14:01.740Z,6.90
2022-10-04T02:16:33.390Z,8.00
2022-10-04T02:19:04.347Z,6.50
2022-10-04T02:21:36.621Z,6.90
2022-10-04T02:24:08.718Z,5.90
2022-10-04T02:26:39.527Z,6.50
2022-10-04T02:29:10.450Z,6.90
2022-10-04T02:32:01.697Z,6.50
2022-10-04T02:34:32.300Z,5.80
2022-10-04T02:37:04.876Z,5.70
2022-10-04T02:39:38.488Z,6.20
2022-10-04T02:42:14.358Z,5.50
2022-10-04T02:44:47.514Z,5.90
2022-10-04T02:47:20.713Z,6.00
2022-10-04T02:49:52.976Z,6.70
2022-10-04T02:52:25.023Z,5.50
2022-10-04T02:55:01.645Z,5.10
2022-10-04T02:57:34.090Z,3.90
2022-10-04T03:00:15.057Z,4.20
2022-10-04T03:03:05.771Z,3.60
2022-10-04T03:05:36.592Z,3.90
2022-10-04T03:08:07.672Z,4.20
2022-10-04T03:10:38.161Z,5.40
2022-10-04T03:13:09.556Z,3.70
2022-10-04T03:15:40.408Z,3.90
2022-10-04T03:18:11.538Z,4.10
2022-10-04T03:20:42.668Z,3.80
2022-10-04T03:23:14.762Z,4.30
2022-10-04T03:25:48.808Z,4.30
2022-10-04T03:28:20.005Z,4.10
2022-10-04T03:30:51.214Z,4.60
2022-10-04T03:33:23.668Z,4.40
2022-10-04T03:35:56.042Z,4.70
2022-10-04T03:38:27.544Z,6.20
2022-10-04T03:40:59.389Z,5.30
2022-10-04T03:43:32.134Z,5.00
2022-10-04T03:46:03.747Z,5.20
2022-10-04T03:48:36.776Z,5.00
2022-10-04T03:51:08.861Z,5.60
2022-10-04T03:53:43.506Z,5.20
2022-10-04T03:56:17.165Z,5.70
2022-10-04T03:58:48.566Z,5.60
2022-10-04T04:01:36.303Z,5.40
2022-10-04T04:04:13.070Z,5.00
2022-10-04T04:06:47.443Z,4.80
2022-10-04T04:09:23.083Z,5.10
2022-10-04T04:11:55.601Z,4.30
2022-10-04T04:14:27.426Z,4.40
2022-10-04T04:17:17.784Z,4.00
2022-10-04T04:19:48.753Z,5.20
2022-10-04T04:22:19.378Z,4.80
2022-10-04T04:24:50.936Z,5.30
2022-10-04T04:27:24.842Z,4.30
2022-10-04T04:30:00.830Z,4.50
2022-10-04T04:32:34.299Z,4.00
2022-10-04T04:35:08.866Z,4.50
2022-10-04T04:37:39.985Z,3.80
2022-10-04T04:40:19.808Z,3.60
2022-10-04T04:42:50.951Z,3.80
2022-10-04T04:45:23.406Z,5.00
2022-10-04T04:47:56.455Z,4.10
2022-10-04T04:50:28.118Z,4.70
2022-10-04T04:53:01.860Z,3.70
2022-10-04T04:55:56.481Z,3.50
2022-10-04T04:58:27.244Z,3.50
2022-10-04T05:01:00.372Z,3.30
2022-10-04T05:03:31.554Z,3.50
2022-10-04T05:06:05.367Z,4.60
2022-10-04T05:08:41.280Z,4.30
2022-10-04T05:11:16.257Z,3.70
2022-10-04T05:13:48.177Z,4.00
2022-10-04T05:16:21.338Z,5.00
2022-10-04T05:18:55.942Z,4.50
2022-10-04T05:21:28.954Z,4.70
2022-10-04T05:24:00.782Z,4.90
2022-10-04T05:26:32.294Z,4.60
2022-10-04T05:29:04.217Z,5.00
2022-10-04T05:31:37.867Z,5.00
2022-10-04T05:34:19.205Z,4.80
2022-10-04T05:36:53.501Z,4.60
2022-10-04T05:39:26.543Z,4.30
2022-10-04T05:42:01.982Z,4.50
2022-10-04T05:44:36.554Z,4.90
2022-10-04T05:47:08.975Z,5.40
2022-10-04T05:49:45.267Z,4.50
2022-10-04T05:52:18.373Z,4.20
2022-10-04T05:54:48.760Z,4.60
2022-10-04T05:57:27.619Z,5.70
2022-10-04T06:00:10.871Z,4.20
2022-10-04T06:02:52.205Z,4.50
2022-10-04T06:05:28.888Z,3.50
2022-10-04T06:08:02.926Z,3.50
2022-10-04T06:13:05.591Z,3.80
2022-10-04T06:15:45.175Z,3.80
2022-10-04T06:18:32.734Z,3.40
2022-10-04T06:21:22.945Z,3.20
2022-10-04T06:23:58.389Z,3.30
2022-10-04T06:26:31.229Z,3.30
2022-10-04T06:29:04.129Z,3.50
2022-10-04T06:31:57.045Z,2.90
2022-10-04T06:34:36.953Z,3.40
2022-10-04T06:37:25.175Z,3.90
2022-10-04T06:40:03.583Z,3.40
2022-10-04T06:42:43.416Z,3.70
2022-10-04T06:45:29.814Z,4.40
2022-10-04T06:48:07.436Z,4.80
2022-10-04T06:50:41.744Z,3.60
2022-10-04T06:53:19.030Z,3.20
2022-10-04T06:56:07.692Z,3.30
2022-10-04T06:58:53.433Z,4.60
2022-10-04T07:01:29.212Z,3.60
2022-10-04T07:04:02.932Z,4.00
2022-10-04T07:06:37.659Z,3.00
2022-10-04T07:09:09.110Z,4.30
2022-10-04T07:11:46.199Z,3.60
2022-10-04T07:14:18.958Z,3.30
2022-10-04T07:16:51.755Z,4.40
2022-10-04T07:19:29.242Z,3.80
2022-10-04T07:22:05.671Z,4.10
2022-10-04T07:24:47.418Z,6.40
2022-10-04T07:27:20.089Z,3.50
2022-10-04T07:29:55.753Z,4.00
2022-10-04T07:32:29.018Z,5.10
2022-10-04T07:35:03.338Z,3.60
2022-10-04T07:37:37.776Z,3.90
2022-10-04T07:40:11.224Z,3.80
2022-10-04T07:42:48.739Z,4.60
2022-10-04T07:45:24.137Z,4.00
2022-10-04T07:48:05.674Z,4.00
2022-10-04T07:50:39.173Z,3.90
2022-10-04T07:53:11.131Z,3.70
2022-10-04T07:55:46.906Z,3.50
2022-10-04T07:58:22.475Z,3.80
2022-10-04T08:00:56.131Z,3.90
2022-10-04T08:03:36.988Z,4.00
2022-10-04T08:06:14.393Z,4.20
2022-10-04T08:08:52.601Z,3.80
2022-10-04T08:11:28.403Z,3.60
2022-10-04T08:14:03.072Z,4.70
2022-10-04T08:16:38.087Z,4.40
2022-10-04T08:19:17.693Z,4.40
2022-10-04T08:21:53.821Z,4.30
2022-10-04T08:24:28.747Z,4.60
2022-10-04T08:27:04.464Z,4.30
2022-10-04T08:29:48.860Z,4.60
2022-10-04T08:32:38.827Z,4.20
2022-10-04T08:35:28.010Z,3.60
2022-10-04T08:38:08.151Z,3.90
2022-10-04T08:40:51.523Z,3.30
2022-10-04T08:46:19.671Z,4.40
2022-10-04T08:49:12.502Z,4.00
2022-10-04T08:52:03.328Z,3.90
2022-10-04T08:55:01.698Z,4.00
2022-10-04T08:57:55.785Z,3.60
2022-10-04T09:00:29.166Z,3.30
2022-10-04T09:03:26.715Z,4.00
2022-10-04T09:06:00.044Z,3.50
2022-10-04T09:09:02.929Z,3.60
2022-10-04T09:11:57.208Z,3.60
2022-10-04T09:14:46.069Z,5.10
2022-10-04T09:17:24.245Z,3.70
2022-10-04T09:20:09.105Z,3.60
2022-10-04T09:22:50.334Z,3.20
2022-10-04T09:25:49.104Z,4.70
2022-10-04T09:28:24.738Z,4.40
2022-10-04T09:31:03.163Z,4.50
2022-10-04T09:33:47.622Z,4.80
2022-10-04T09:36:28.802Z,3.50
2022-10-04T09:39:29.064Z,3.10
2022-10-04T09:42:13.195Z,5.20
2022-10-04T09:44:54.776Z,3.20
2022-10-04T09:47:38.111Z,3.20
2022-10-04T09:50:32.166Z,3.10
2022-10-04T09:53:07.069Z,3.90
2022-10-04T09:55:44.501Z,3.30
2022-10-04T09:58:29.752Z,3.60
2022-10-04T10:01:07.722Z,3.00
2022-10-04T10:04:06.093Z,3.00
2022-10-04T10:06:50.268Z,3.10
2022-10-04T10:09:49.977Z,4.10
2022-10-04T10:12:41.525Z,3.70
2022-10-04T10:15:17.373Z,3.80
2022-10-04T10:17:51.607Z,3.10
2022-10-04T10:20:42.132Z,3.80
2022-10-04T10:23:23.675Z,3.90
2022-10-04T10:26:17.020Z,3.60
2022-10-04T10:29:04.297Z,4.00
2022-10-04T10:31:47.945Z,3.50
2022-10-04T10:34:29.006Z,4.00
2022-10-04T10:37:16.398Z,2.80
2022-10-04T10:40:03.414Z,2.90
2022-10-04T10:42:47.397Z,2.60
2022-10-04T10:45:27.913Z,2.50
2022-10-04T10:48:02.129Z,2.50
2022-10-04T10:51:00.048Z,2.60
2022-10-04T10:53:59.339Z,2.20
2022-10-04T10:56:47.048Z,2.60
2022-10-04T10:59:48.108Z,2.40
2022-10-04T11:02:48.625Z,1.90
2022-10-04T11:05:49.039Z,2.70
2022-10-04T11:08:30.681Z,3.40
2022-10-04T11:11:05.874Z,2.50
2022-10-04T11:13:50.387Z,2.20
2022-10-04T11:16:31.598Z,2.00
2022-10-04T11:19:16.151Z,2.40
2022-10-04T11:22:07.366Z,2.60
2022-10-04T11:24:50.692Z,1.90
2022-10-04T11:30:04.437Z,2.10
2022-10-04T11:32:52.275Z,2.40
2022-10-04T11:35:46.603Z,2.50
2022-10-04T11:38:25.503Z,2.20
2022-10-04T11:41:04.049Z,2.20
2022-10-04T11:43:42.885Z,1.60
2022-10-04T11:46:22.423Z,2.00
2022-10-04T11:49:03.315Z,2.30
2022-10-04T11:51:45.525Z,2.20
2022-10-04T11:54:27.683Z,1.90
2022-10-04T11:57:11.928Z,1.90
2022-10-04T11:59:48.134Z,2.20
2022-10-04T12:02:35.719Z,2.10
2022-10-04T12:05:23.539Z,1.70
2022-10-04T12:08:03.111Z,1.60
2022-10-04T12:10:36.663Z,1.60
2022-10-04T12:13:30.234Z,2.40
2022-10-04T12:16:19.076Z,1.60
2022-10-04T12:19:00.276Z,2.30
2022-10-04T12:21:50.966Z,2.00
2022-10-04T12:24:28.120Z,1.50
2022-10-04T12:27:25.109Z,2.10
2022-10-04T12:30:08.910Z,1.80
2022-10-04T12:32:42.233Z,2.00
2022-10-04T12:35:24.760Z,2.20
2022-10-04T12:38:14.012Z,2.70
2022-10-04T12:40:48.754Z,2.50
2022-10-04T12:43:23.046Z,2.10
2022-10-04T12:45:58.304Z,2.10
2022-10-04T12:48:33.355Z,2.50
2022-10-04T12:51:09.238Z,2.10
2022-10-04T12:53:45.563Z,2.70
2022-10-04T12:56:23.275Z,2.60
2022-10-04T12:59:03.039Z,2.40
2022-10-04T13:01:37.865Z,2.20
2022-10-04T13:04:20.519Z,1.80
2022-10-04T13:06:56.024Z,2.10
2022-10-04T13:09:30.263Z,2.10
2022-10-04T13:12:04.764Z,2.10
2022-10-04T13:14:41.559Z,1.80
2022-10-04T13:17:30.644Z,1.70
2022-10-04T13:20:13.717Z,1.80
2022-10-04T13:22:56.927Z,1.70
2022-10-04T13:25:45.944Z,1.90
2022-10-04T13:28:23.232Z,2.60
2022-10-04T13:30:58.940Z,1.90
2022-10-04T13:33:31.916Z,1.90
2022-10-04T13:36:07.199Z,2.20
2022-10-04T13:38:50.944Z,2.20
2022-10-04T13:41:26.906Z,2.30
2022-10-04T13:44:18.000Z,2.30
2022-10-04T13:46:59.812Z,2.40
2022-10-04T13:49:38.548Z,2.30
2022-10-04T13:52:31.904Z,1.70
2022-10-04T13:55:31.002Z,2.20
2022-10-04T13:58:10.600Z,1.70
2022-10-04T14:00:50.714Z,2.70
2022-10-04T14:03:43.147Z,1.80
2022-10-04T14:06:27.367Z,2.60
2022-10-04T14:09:09.693Z,2.60
2022-10-04T14:11:55.079Z,2.30
2022-10-04T14:14:35.124Z,2.10
2022-10-04T14:17:22.973Z,2.10
2022-10-04T14:20:07.305Z,2.40
2022-10-04T14:23:00.775Z,1.80
2022-10-04T14:25:49.812Z,1.80
2022-10-04T14:28:38.672Z,1.70
2022-10-04T14:31:22.067Z,2.20
2022-10-04T14:34:06.481Z,2.50
2022-10-04T14:36:51.217Z,2.60
2022-10-04T14:39:40.985Z,2.40
2022-10-04T14:42:19.991Z,2.20
2022-10-04T14:45:05.643Z,3.00
2022-10-04T14:47:50.580Z,2.10
2022-10-04T14:50:26.190Z,2.60
2022-10-04T14:53:06.310Z,1.80
2022-10-04T14:55:50.813Z,1.80
2022-10-04T14:58:26.504Z,2.00
2022-10-04T15:01:07.653Z,2.10
2022-10-04T15:03:42.407Z,2.00
2022-10-04T15:06:23.883Z,2.20
2022-10-04T15:09:08.528Z,2.30
2022-10-04T15:11:41.615Z,1.70
2022-10-04T15:14:35.869Z,2.30
2022-10-04T15:17:08.697Z,2.10
2022-10-04T15:19:54.011Z,1.90
2022-10-04T15:22:27.784Z,2.00
2022-10-04T15:24:59.744Z,1.80
2022-10-04T15:27:51.828Z,2.10
2022-10-04T15:30:36.010Z,1.80
2022-10-04T15:33:18.322Z,1.80
2022-10-04T15:36:09.791Z,2.50
2022-10-04T15:38:45.835Z,2.10
2022-10-04T15:41:19.107Z,2.40
2022-10-04T15:44:12.256Z,2.00
2022-10-04T15:49:31.413Z,2.10
2022-10-04T15:52:10.774Z,2.30
2022-10-04T15:55:11.559Z,2.10
2022-10-04T15:57:54.379Z,2.50
2022-10-04T16:00:27.120Z,2.30
2022-10-04T16:03:00.290Z,2.70
2022-10-04T16:05:39.660Z,2.30
2022-10-04T16:08:42.112Z,2.40
2022-10-04T16:11:25.329Z,2.20
2022-10-04T16:14:16.136Z,3.20
2022-10-04T16:17:03.911Z,2.50
2022-10-04T16:19:49.853Z,2.00
2022-10-04T16:22:28.378Z,2.20
2022-10-04T16:25:00.638Z,2.90
2022-10-04T16:27:54.150Z,3.60
2022-10-04T16:30:29.269Z,4.70
2022-10-04T16:33:06.455Z,3.80
2022-10-04T16:35:39.392Z,3.00
2022-10-04T16:38:16.541Z,2.70
2022-10-04T16:41:09.568Z,2.60
2022-10-04T16:43:48.953Z,2.80
2022-10-04T16:46:27.203Z,3.00
2022-10-04T16:48:59.208Z,2.80
2022-10-04T16:51:39.249Z,2.80
2022-10-04T16:54:18.799Z,3.20
2022-10-04T16:57:06.901Z,4.10
2022-10-04T16:59:48.069Z,3.40
2022-10-04T17:02:32.426Z,2.40
2022-10-04T17:05:18.117Z,2.60
2022-10-04T17:07:59.431Z,3.10
2022-10-04T17:10:35.801Z,3.10
2022-10-04T17:13:16.249Z,3.30
2022-10-04T17:15:49.902Z,2.80
2022-10-04T17:18:26.383Z,2.90
2022-10-04T17:20:58.862Z,2.90
2022-10-04T17:23:46.079Z,3.10
2022-10-04T17:26:22.625Z,3.10
2022-10-04T17:28:57.696Z,2.90
2022-10-04T17:31:35.128Z,3.50
2022-10-04T17:34:10.768Z,2.90
2022-10-04T17:36:43.994Z,3.20
2022-10-04T17:39:22.696Z,3.90
2022-10-04T17:42:01.926Z,3.20
2022-10-04T17:44:40.175Z,3.30
2022-10-04T17:47:15.195Z,2.90
2022-10-04T17:50:10.237Z,3.60
2022-10-04T17:53:02.387Z,3.60
2022-10-04T17:55:44.250Z,3.70
2022-10-04T17:58:16.333Z,4.40
2022-10-04T18:00:57.031Z,4.00
2022-10-04T18:03:32.973Z,3.60
2022-10-04T18:06:12.524Z,3.80
2022-10-04T18:08:47.952Z,4.30
2022-10-04T18:11:22.281Z,3.30
2022-10-04T18:14:03.309Z,4.00
2022-10-04T18:16:43.623Z,4.20
2022-10-04T18:19:27.765Z,4.20
2022-10-04T18:22:06.597Z,3.90
2022-10-04T18:24:40.934Z,4.10
2022-10-04T18:27:22.849Z,4.00
2022-10-04T18:30:15.272Z,4.10
2022-10-04T18:32:52.790Z,3.20
2022-10-04T18:35:30.284Z,3.40
2022-10-04T18:38:21.401Z,4.00
2022-10-04T18:40:58.922Z,4.10
2022-10-04T18:43:32.914Z,4.50
2022-10-04T18:46:11.985Z,3.90
2022-10-04T18:49:03.937Z,4.60
2022-10-04T18:51:48.816Z,4.30
2022-10-04T18:57:17.101Z,4.30
2022-10-04T19:00:09.927Z,4.30
2022-10-04T19:02:45.316Z,4.80
2022-10-04T19:05:24.414Z,5.00
2022-10-04T19:08:07.919Z,5.00
2022-10-04T19:10:46.366Z,4.20
2022-10-04T19:13:33.950Z,4.60
2022-10-04T19:16:16.130Z,4.90
2022-10-04T19:18:54.515Z,4.50
2022-10-04T19:21:27.540Z,5.00
2022-10-04T19:24:13.281Z,6.00
2022-10-04T19:26:46.130Z,5.40
2022-10-04T19:29:22.991Z,5.40
2022-10-04T19:31:57.005Z,5.80
2022-10-04T19:34:33.967Z,5.90
2022-10-04T19:37:09.263Z,5.50
2022-10-04T19:39:43.720Z,6.40
2022-10-04T19:42:15.748Z,6.90
2022-10-04T19:45:03.305Z,7.80
2022-10-04T19:47:41.543Z,8.20
2022-10-04T19:50:18.846Z,6.80
2022-10-04T19:52:54.625Z,6.80
2022-10-04T19:55:29.980Z,7.50
2022-10-04T19:58:10.098Z,8.60
2022-10-04T20:00:41.198Z,8.80
2022-10-04T20:03:13.557Z,9.20
2022-10-04T20:05:52.689Z,8.80
2022-10-04T20:08:37.015Z,9.40
2022-10-04T20:11:16.128Z,9.30
2022-10-04T20:13:46.977Z,9.60
2022-10-04T20:16:38.570Z,11.90
2022-10-04T20:19:19.709Z,13.30
2022-10-04T20:21:51.312Z,14.20
2022-10-04T20:24:41.915Z,12.90
2022-10-04T20:27:37.979Z,13.50
2022-10-04T20:30:18.811Z,11.70
2022-10-04T20:32:56.475Z,11.20
2022-10-04T20:35:43.990Z,10.70
2022-10-04T20:38:32.281Z,10.90
2022-10-04T20:41:03.233Z,12.90
2022-10-04T20:43:54.679Z,12.80
2022-10-04T20:46:25.737Z,14.30
2022-10-04T20:48:56.882Z,15.40
2022-10-04T20:51:30.279Z,15.30
2022-10-04T20:54:01.925Z,17.80
2022-10-04T20:56:33.445Z,15.30
2022-10-04T20:59:05.727Z,12.00
2022-10-04T21:01:46.003Z,14.40
2022-10-04T21:04:18.771Z,13.30
2022-10-04T21:06:55.628Z,13.40
2022-10-04T21:09:27.585Z,13.10
2022-10-04T21:11:58.415Z,11.10
2022-10-04T21:14:30.008Z,11.10
2022-10-04T21:17:02.873Z,12.60
2022-10-04T21:19:54.069Z,14.10
2022-10-04T21:22:34.541Z,14.60
2022-10-04T21:25:07.553Z,13.70
2022-10-04T21:27:38.966Z,13.90
2022-10-04T21:30:15.231Z,14.40
2022-10-04T21:32:45.549Z,12.60
2022-10-04T21:35:17.206Z,13.10
2022-10-04T21:37:47.692Z,14.50
2022-10-04T21:40:18.742Z,13.70
2022-10-04T21:42:49.097Z,14.40
2022-10-04T21:45:19.945Z,14.10
2022-10-04T21:47:50.266Z,14.00
2022-10-04T21:50:21.705Z,14.50
2022-10-04T21:52:52.025Z,13.70
2022-10-04T21:55:22.871Z,14.10
2022-10-04T21:57:53.181Z,12.60
2022-10-04T22:00:24.604Z,13.30
2022-10-04T22:02:54.893Z,13.60
2022-10-04T22:05:25.658Z,12.90
2022-10-04T22:07:55.932Z,12.90
2022-10-04T22:10:26.783Z,12.20
2022-10-04T22:12:57.463Z,13.10
2022-10-04T22:15:29.312Z,14.90
2022-10-04T22:17:59.825Z,17.20
2022-10-04T22:20:30.840Z,15.30
2022-10-04T22:23:15.389Z,14.10
2022-10-04T22:25:46.615Z,14.10
2022-10-04T22:28:20.478Z,14.90
2022-10-04T22:30:52.468Z,12.70
2022-10-04T22:33:28.485Z,13.60
2022-10-04T22:36:00.636Z,13.60
2022-10-04T22:38:31.548Z,12.50
2022-10-04T22:41:02.951Z,12.20
2022-10-04T22:43:33.336Z,13.80
2022-10-04T22:46:04.425Z,14.40
2022-10-04T22:48:35.097Z,13.10
2022-10-04T22:51:06.254Z,12.70
2022-10-04T22:53:36.958Z,13.50
2022-10-04T22:56:08.346Z,12.70
2022-10-04T22:58:38.906Z,15.20
2022-10-04T23:01:14.211Z,14.60
2022-10-04T23:03:46.262Z,13.50
2022-10-04T23:06:17.487Z,14.10
2022-10-04T23:08:47.957Z,15.20
2022-10-04T23:11:18.650Z,13.70
2022-10-04T23:13:48.969Z,14.40
2022-10-04T23:16:21.050Z,13.70
2022-10-04T23:18:51.847Z,14.00
2022-10-04T23:21:24.047Z,13.50
2022-10-04T23:23:54.777Z,12.80
2022-10-04T23:26:28.356Z,12.40
2022-10-04T23:31:28.309Z,14.00
2022-10-04T23:33:59.258Z,14.40
2022-10-04T23:36:29.989Z,13.40
2022-10-04T23:39:02.711Z,12.00
2022-10-04T23:41:33.137Z,13.10
2022-10-04T23:44:04.349Z,12.70
2022-10-04T23:46:35.054Z,14.40
2022-10-04T23:49:06.133Z,17.10
2022-10-04T23:51:37.037Z,17.90
2022-10-04T23:54:11.767Z,21.10
2022-10-04T23:56:43.222Z,21.20
2022-10-04T23:59:17.345Z,22.80
